Marble Point, Antarctica

6:37 AM GMT on September 27, 2016 (GMT +0000)
Williams Field | | Change Station

Elev 79 ft 77.85 °S, 166.67 °E | Updated 42 minutes ago

Clear
Clear
0 °F
Feels Like -16 °F
N
9
Wind Variable Wind from East

Today
High -- | Low -- °F
--% Chance of Precip.
Yesterday
High -- | Low -- °F
Precip. -- in
Pressure 29.23 in
Visibility 6.2 miles
Clouds Clear
Windchill -16 °F
Dew Point -20 °F
Humidity 39%
Rainfall 0.00 in
Snow Depth Not available.
6:11 PM 7:44 AM
Waning Crescent, 13% visible
METAR NZCM 270555Z 08008KT 040V120 9999 SKC M18/M29 A2921 RMK SLP896
Pressure 29.23 in
Visibility 6.2 miles
Clouds Clear
Windchill -16 °F
Dew Point -20 °F
Humidity 39%
Rainfall 0.00 in
Snow Depth Not available.
6:11 PM 7:44 AM
Waning Crescent, 13% visible
METAR NZCM 270555Z 08008KT 040V120 9999 SKC M18/M29 A2921 RMK SLP896

10-Day Weather Forecast

No radar image for this location.
×

Almanac

Astronomy

Sep. 27, 2016 Rise Set
Actual Time
Civil Twilight
Nautical Twilight
Astronomical Twilight
Moon
Length of Visible Light
Length of Day
Tomorrow will be .
, % of the Moon is Illuminated

Today's Extremes

Country Highs Country Lows

Community

WunderPhotos

Upload Photos

1,942,040 photos uploaded!

WunderBlog® & News

Nearby

Air Quality

  Air Quality AQ Index Pollutant
Not available.

Snow Depth

Station Depth Elevation

Earthquake Activity

City Distance Mag. Time & Date
Minimum magnitude displayed is 2.5.

Coastal Water Temperatures

Place Temperature

Stations

Nearby Weather Stations

Station Location Temp. Windchill Dew Point Humidity Wind Precip. Elev Updated Type